• Join FlightAware (Why Join?)
  • Login
  • US Flag 
03:46AM EDT


 

Airport Tracker/Info


-or-


 

Live Flight TrackerFlight Track Log ✈ N957AN ✈ 17-Apr-2013 ✈ KDFW - KSNA

Flight Track Log - Related Links

Times and Time Zones

All times are in EDT time to prevent confusion due to time zone crossing. See the N957AN flight status page for this flight to view local times or setup timezone preferences in your user account.

Time Position Orientation Groundspeed Altitude Reporting Facility
EDT Latitude Longitude Course Direction KTS MPH feet Rate Location/Type
10:09AM 32.8667 -97.0500 295° West 165 190 2,000  Level Dallas / Fort Worth TRACON
10:10AM 32.8167 -97.0500 180° South 208 239 3,400 2,040 Climbing Dallas / Fort Worth TRACON
10:11AM 32.6833 -97.2132 270° West  Level FlightAware Approximate
10:11AM 32.7667 -97.1000 220° Southwest 254 292 6,100  Level Dallas / Fort Worth TRACON
10:12AM 32.7178 -97.3322 293° West  Level FlightAware Approximate
10:13AM 32.7608 -97.4505 293° West  Level FlightAware Approximate
10:13AM 32.7936 -97.2503 282° West 263 303 10,200  Level Fort Worth Center
10:14AM 32.8057 -97.5679 295° West  Level FlightAware Approximate
10:14AM 32.8103 -97.3614 280° West 297 342 11,300  Level Fort Worth Center
10:15AM 32.8272 -97.4678 281° West 345 397 12,600 1,500 Climbing Fort Worth Center
10:16AM 32.8458 -97.6014 279° West 378 435 14,400 2,400 Climbing Fort Worth Center
10:17AM 32.8642 -97.7375 279° West 404 465 17,500 2,640 Climbing Fort Worth Center
10:18AM 32.8639 -97.8586 270° West 409 471 19,700 2,220 Climbing Fort Worth Center
10:19AM 32.8633 -98.0119 270° West 414 476 22,000 2,040 Climbing Fort Worth Center
10:20AM 32.8625 -98.1406 270° West 424 488 23,800 1,740 Climbing Fort Worth Center
10:21AM 32.8617 -98.2839 270° West 434 499 25,500 1,500 Climbing Fort Worth Center
10:22AM 32.8772 -98.4300 277° West 440 506 26,900 1,620 Climbing Fort Worth Center
10:23AM 32.9133 -98.5839 286° West 440 506 28,800 1,620 Climbing Fort Worth Center
10:24AM 32.9475 -98.7281 286° West 450 518 30,200 1,800 Climbing Fort Worth Center
10:25AM 32.9814 -98.8697 286° West 455 524 32,400 1,920 Climbing Fort Worth Center
10:26AM 33.0131 -99.0039 286° West 443 510 34,100 1,800 Climbing Fort Worth Center
10:27AM 33.0428 -99.1283 286° West 416 479 36,100 960 Climbing Fort Worth Center
10:28AM 33.0703 -99.2503 285° West 397 457 36,100  Level Fort Worth Center
10:29AM 33.0997 -99.3725 286° West 385 443 36,100  Level Fort Worth Center
10:30AM 33.1272 -99.4922 285° West 385 443 36,100  Level Fort Worth Center
10:31AM 33.1542 -99.6144 285° West 380 437 36,100  Level Fort Worth Center
10:32AM 33.1833 -99.7392 286° West 380 437 36,100  Level Fort Worth Center
10:33AM 33.2103 -99.8614 285° West 380 437 36,100  Level Fort Worth Center
10:34AM 33.2369 -99.9814 285° West 380 437 36,100  Level Fort Worth Center
10:35AM 33.2636 -100.1039 285° West 380 437 36,100  Level Fort Worth Center
10:36AM 33.2922 -100.2242 286° West 380 437 36,100  Level Fort Worth Center
10:37AM 33.3167 -100.3442 284° West 380 437 36,100  Level Fort Worth Center
10:38AM 33.3431 -100.4644 285° West 380 437 36,100  Level Fort Worth Center
10:39AM 33.3714 -100.5847 286° West 374 430 36,100  Level Fort Worth Center
10:40AM 33.3975 -100.7028 285° West 374 430 36,100  Level Fort Worth Center
10:41AM 33.4236 -100.8206 285° West 374 430 36,100  Level Fort Worth Center
10:42AM 33.4494 -100.9386 285° West 374 430 36,100  Level Fort Worth Center
10:43AM 33.4756 -101.0542 285° West 374 430 36,100  Level Fort Worth Center
10:44AM 33.4972 -101.1622 284° West 374 430 36,100  Level Fort Worth Center
10:45AM 33.5247 -101.2906 284° West 369 425 36,100  Level Fort Worth Center
10:46AM 33.5464 -101.3986 284° West 369 425 36,100  Level Fort Worth Center
10:47AM 33.5736 -101.5269 284° West 369 425 36,100  Level Fort Worth Center
10:48AM 33.5931 -101.6325 282° West 369 425 36,100  Level Fort Worth Center
10:49AM 33.6239 -101.7639 286° West 374 430 36,100  Level Fort Worth Center
10:50AM 33.6472 -101.8747 284° West 379 436 36,100  Level Fort Worth Center
10:51AM 33.6714 -102.0106 282° West 374 430 36,100  Level Fort Worth Center
10:52AM 33.6944 -102.1242 284° West 369 425 36,100  Level Fort Worth Center
10:53AM 33.7189 -102.2453 284° West 364 419 36,100  Level Fort Worth Center
10:54AM 33.7439 -102.3592 285° West 359 413 36,100  Level Fort Worth Center
10:55AM 33.7661 -102.4803 282° West 359 413 36,100  Level Fort Worth Center
10:57AM 33.8175 -102.7222 284° West 363 418 36,100  Level Albuquerque Center
10:58AM 33.8464 -102.8656 284° West 367 422 36,100  Level Albuquerque Center
10:59AM 33.8689 -102.9833 283° West 364 419 36,100  Level Albuquerque Center
11:00AM 33.8931 -103.1003 284° West 362 417 36,100  Level Albuquerque Center
11:01AM 33.9172 -103.2178 284° West 362 417 36,100  Level Albuquerque Center
11:02AM 33.9397 -103.3392 283° West 368 423 36,100  Level Albuquerque Center
11:03AM 33.9617 -103.4608 282° West 372 428 36,100  Level Albuquerque Center
11:04AM 33.9844 -103.5806 283° West 369 425 36,100  Level Albuquerque Center
11:05AM 34.0103 -103.7178 283° West 366 421 36,100  Level Albuquerque Center
11:07AM 34.0336 -103.8397 283° West 368 423 36,100  Level Albuquerque Center
11:08AM 34.0567 -103.9642 283° West 373 429 36,100  Level Albuquerque Center
11:09AM 34.0794 -104.0881 283° West 374 430 36,100  Level Albuquerque Center
11:10AM 34.1069 -104.2300 283° West 369 425 36,100  Level Albuquerque Center
11:11AM 34.1300 -104.3525 283° West 368 423 36,100  Level Albuquerque Center
11:12AM 34.1511 -104.4733 282° West 367 422 36,100  Level Albuquerque Center
11:13AM 34.1736 -104.5939 283° West 366 421 36,100  Level Albuquerque Center
11:14AM 34.1967 -104.7153 283° West 366 421 36,100  Level Albuquerque Center
11:15AM 34.2197 -104.8417 282° West 374 430 36,100  Level Albuquerque Center
11:16AM 34.2414 -104.9683 282° West 379 436 36,100  Level Albuquerque Center
11:17AM 34.2653 -105.0967 283° West 383 441 36,100 -60 Level Albuquerque Center
11:18AM 34.2867 -105.2244 281° West 385 443 36,000  Descending Albuquerque Center
11:19AM 34.3136 -105.3692 283° West 376 433 36,100  Climbing Albuquerque Center
11:20AM 34.3358 -105.4939 282° West 375 432 36,100  Level Albuquerque Center
11:21AM 34.3561 -105.6167 281° West 372 428 36,100  Level Albuquerque Center
11:22AM 34.3731 -105.7403 279° West 370 426 36,100  Level Albuquerque Center
11:23AM 34.3797 -105.8683 274° West 376 433 36,100  Level Albuquerque Center
11:24AM 34.3883 -105.9978 275° West 380 437 36,100  Level Albuquerque Center
11:25AM 34.3961 -106.1269 274° West 381 438 36,100  Level Albuquerque Center
11:26AM 34.4022 -106.2483 274° West 378 435 36,100  Level Albuquerque Center
11:27AM 34.4125 -106.3997 275° West 376 433 36,100  Level Albuquerque Center
11:28AM 34.4194 -106.5242 274° West 372 428 36,100 -60 Level Albuquerque Center
11:29AM 34.4256 -106.6514 273° West 393 452 36,000 -60 Descending Albuquerque Center
11:30AM 34.4344 -106.7664 275° West 362 417 36,000  Level Albuquerque Center
11:31AM 34.4414 -106.8922 274° West 367 422 36,100  Climbing Albuquerque Center
11:32AM 34.4489 -107.0183 274° West 372 428 36,100  Level Albuquerque Center
11:33AM 34.4553 -107.1419 274° West 369 425 36,100 -60 Level Albuquerque Center
11:34AM 34.4622 -107.2650 274° West 366 421 36,000  Descending Albuquerque Center
11:35AM 34.4706 -107.4142 274° West 368 423 36,100  Climbing Albuquerque Center
11:36AM 34.4758 -107.5361 273° West 363 418 36,000  Descending Albuquerque Center
11:37AM 34.4836 -107.6608 274° West 369 425 36,100  Climbing Albuquerque Center
11:38AM 34.4892 -107.7833 273° West 364 419 36,100  Level Albuquerque Center
11:40AM 34.4947 -107.9072 273° West 367 422 36,100  Level Albuquerque Center
11:41AM 34.5014 -108.0303 274° West 366 421 36,100  Level Albuquerque Center
11:42AM 34.5053 -108.1553 272° West 370 426 36,100  Level Albuquerque Center
11:43AM 34.5094 -108.2792 272° West 369 425 36,100  Level Albuquerque Center
11:44AM 34.5139 -108.4294 272° West 371 427 36,100  Level Albuquerque Center
11:45AM 34.5181 -108.5519 272° West 375 432 36,100 -60 Level Albuquerque Center
11:46AM 34.5225 -108.6919 272° West 374 430 36,000  Descending Albuquerque Center
11:47AM 34.5250 -108.8103 272° West 370 426 36,100  Climbing Albuquerque Center
11:48AM 34.5289 -108.9297 272° West 370 426 36,100  Level Albuquerque Center
11:49AM 34.5325 -109.0700 272° West 371 427 36,100  Level Albuquerque Center
11:50AM 34.5356 -109.1897 272° West 371 427 36,100  Level Albuquerque Center
11:51AM 34.5383 -109.3275 271° West 369 425 36,100  Level Albuquerque Center
11:52AM 34.5414 -109.4467 272° West 369 425 36,100 -60 Level Albuquerque Center
11:53AM 34.5447 -109.5869 272° West 370 426 36,000  Descending Albuquerque Center
11:54AM 34.5467 -109.7050 271° West 369 425 36,100  Climbing Albuquerque Center
11:55AM 34.5500 -109.8228 272° West 367 422 36,000  Descending Albuquerque Center
11:56AM 34.5522 -109.9597 271° West 364 419 36,100  Climbing Albuquerque Center
11:57AM 34.5539 -110.0800 271° West 369 425 36,100  Level Albuquerque Center
11:58AM 34.5589 -110.2214 272° West 373 429 36,100  Level Albuquerque Center
11:59AM 34.5617 -110.3406 272° West 371 427 36,100  Level Albuquerque Center
12:00PM 34.5636 -110.4775 271° West 366 421 36,100  Level Albuquerque Center
12:01PM 34.5653 -110.5933 271° West 362 417 36,100  Level Albuquerque Center
12:02PM 34.5658 -110.7286 270° West 360 414 36,100  Level Albuquerque Center
12:03PM 34.5625 -110.8356 268° West 358 412 36,100  Level Albuquerque Center
12:04PM 34.5633 -110.9569 271° West 360 414 36,100  Level Albuquerque Center
12:05PM 34.5656 -111.0781 271° West 361 415 36,100  Level Albuquerque Center
12:06PM 34.5664 -111.2253 270° West 364 419 36,100 -60 Level Albuquerque Center
12:07PM 34.5669 -111.3497 270° West 368 423 36,000  Descending Albuquerque Center
12:08PM 34.5675 -111.4742 270° West 371 427 36,100  Climbing Albuquerque Center
12:09PM 34.5669 -111.5992 270° West 372 428 36,100  Level Albuquerque Center
12:10PM 34.5531 -111.7228 262° West 373 429 36,100  Level Albuquerque Center
12:11PM 34.5397 -111.8706 264° West 371 427 36,100  Level Albuquerque Center
12:12PM 34.5281 -111.9928 263° West 369 425 36,100 -60 Level Albuquerque Center
12:14PM 34.5172 -112.1153 264° West 369 425 36,000  Descending Albuquerque Center
12:15PM 34.5056 -112.2347 263° West 363 418 36,100  Climbing Albuquerque Center
12:16PM 34.4933 -112.3644 264° West 360 414 36,100  Level Albuquerque Center
12:17PM 34.4814 -112.4844 263° West 358 412 36,100  Level Albuquerque Center
12:18PM 34.4706 -112.6044 264° West 359 413 36,100  Level Albuquerque Center
12:19PM 34.4575 -112.7250 263° West 361 415 36,100  Level Albuquerque Center
12:20PM 34.4436 -112.8564 263° West 361 415 36,100  Level Albuquerque Center
12:21PM 34.4311 -112.9758 263° West 360 414 36,100  Level Albuquerque Center
12:22PM 34.4200 -113.0969 264° West 362 417 36,100  Level Albuquerque Center
12:23PM 34.4044 -113.2433 263° West 365 420 36,100  Level Albuquerque Center
12:24PM 34.3911 -113.3678 263° West 370 426 36,100  Level Albuquerque Center
12:25PM 34.3786 -113.4900 263° West 369 425 36,100  Level Albuquerque Center
12:26PM 34.3653 -113.6117 262° West 367 422 36,100  Level Albuquerque Center
12:27PM 34.3489 -113.7436 261° West 365 420 36,100  Level Albuquerque Center
12:28PM 34.3356 -113.8672 263° West 367 422 36,100  Level Albuquerque Center
12:29PM 34.3228 -113.9894 263° West 368 423 36,100  Level Albuquerque Center
12:30PM 34.3089 -114.1122 262° West 368 423 36,100  Level Albuquerque Center
12:31PM 34.2917 -114.2600 262° West 369 425 36,100  Level Albuquerque Center
12:32PM 34.2786 -114.3811 263° West 367 422 36,100 -60 Level Albuquerque Center
12:33PM 34.2686 -114.4808 263° West 353 406 36,000 -60 Descending Los Angeles Center
12:34PM 34.2556 -114.5986 262° West 355 409 36,000  Level Los Angeles Center
12:35PM 34.2406 -114.7136 261° West 350 403 36,000  Level Los Angeles Center
12:36PM 34.2269 -114.8278 262° West 347 399 36,000  Level Los Angeles Center
12:37PM 34.2139 -114.9450 262° West 350 403 36,000  Level Los Angeles Center
12:38PM 34.1933 -115.0828 260° West 351 404 36,000  Level Los Angeles Center
12:39PM 34.1747 -115.1972 259° West 350 403 36,000 -480 Level Los Angeles Center
12:40PM 34.1558 -115.3117 259° West 349 402 35,100 -960 Descending Los Angeles Center
12:41PM 34.1361 -115.4258 258° West 348 400 34,100 -960 Descending Los Angeles Center
12:42PM 34.1172 -115.5453 259° West 359 413 33,200 -960 Descending Los Angeles Center
12:43PM 34.0972 -115.6631 258° West 362 417 32,200 -1,500 Descending Los Angeles Center
12:44PM 34.0725 -115.8083 258° West 368 423 30,100 -2,640 Descending Los Angeles Center
12:45PM 34.0519 -115.9247 258° West 361 415 26,800 -2,760 Descending Los Angeles Center
12:46PM 34.0319 -116.0419 258° West 359 413 24,400 -1,380 Descending Los Angeles Center
12:48PM 34.0122 -116.1547 258° West 347 399 24,000 -240 Descending Los Angeles Center
12:49PM 33.9922 -116.2672 258° West 345 397 24,000 -540 Level Los Angeles Center
12:50PM 33.9692 -116.4014 258° West 343 395 23,000 -780 Descending Los Angeles Center
12:51PM 33.9497 -116.5147 258° West 346 398 22,400 -1,500 Descending Los Angeles Center
12:52PM 33.9300 -116.6244 258° West 339 390 20,000 -2,280 Descending Los Angeles Center
12:53PM 33.9103 -116.7342 258° West 337 388 17,700 -2,400 Descending Los Angeles Center
12:54PM 33.8900 -116.8439 257° West 338 389 15,100 -1,800 Descending Los Angeles Center
12:55PM 33.8514 -116.9667 249° West 338 389 14,000 -900 Descending Los Angeles Center
12:56PM 33.8072 -117.0522 238° Southwest 307 353 13,300 -1,320 Descending Los Angeles Center
12:57PM 33.7694 -117.1358 241° Southwest 290 334 11,300 -1,860 Descending Los Angeles Center
12:58PM 33.7325 -117.2219 243° Southwest 288 331 9,500 -1,560 Descending Los Angeles Center
12:59PM 33.6981 -117.3097 245° Southwest 291 335 8,100 -780 Descending Los Angeles Center
01:00PM 33.6531 -117.4108 242° Southwest 287 330 8,000 -180 Descending Los Angeles Center
01:01PM 33.5983 -117.4811 227° Southwest 287 330 7,800 -600 Descending Los Angeles Center
01:02PM 33.5483 -117.5531 230° Southwest 283 326 6,800 -900 Descending Los Angeles Center
01:03PM 33.5167 -117.6500 249° West 250 288 6,000 -600 Descending Southern California TRACON
01:04PM 33.5167 -117.7167 270° West 224 258 5,700 -1,080 Descending Southern California TRACON
01:05PM 33.5167 -117.7833 270° West 200 230 4,000 -1,560 Descending Southern California TRACON
01:06PM 33.5167 -117.8500 270° West 194 223 2,600 -1,440 Descending Southern California TRACON